sensor_id;sensor_type;location;lat;lon;timestamp;P1;durP1;ratioP1;P2;durP2;ratioP2
13891;SDS011;7016;48.172;8.058;2023-07-29T00:00:19;3.90;;;2.15;;
13891;SDS011;7016;48.172;8.058;2023-07-29T00:03:05;5.57;;;2.58;;
13891;SDS011;7016;48.172;8.058;2023-07-29T00:05:52;12.52;;;2.83;;
13891;SDS011;7016;48.172;8.058;2023-07-29T00:08:39;5.35;;;2.58;;
13891;SDS011;7016;48.172;8.058;2023-07-29T00:11:25;10.90;;;3.35;;
13891;SDS011;7016;48.172;8.058;2023-07-29T00:14:11;12.07;;;2.65;;
13891;SDS011;7016;48.172;8.058;2023-07-29T00:16:57;3.28;;;2.00;;
13891;SDS011;7016;48.172;8.058;2023-07-29T00:19:43;5.43;;;2.58;;
13891;SDS011;7016;48.172;8.058;2023-07-29T00:22:31;4.50;;;1.98;;
13891;SDS011;7016;48.172;8.058;2023-07-29T00:25:17;2.17;;;1.73;;
13891;SDS011;7016;48.172;8.058;2023-07-29T00:28:03;11.68;;;1.50;;
13891;SDS011;7016;48.172;8.058;2023-07-29T00:30:50;3.15;;;1.60;;
13891;SDS011;7016;48.172;8.058;2023-07-29T00:33:36;3.72;;;1.50;;
13891;SDS011;7016;48.172;8.058;2023-07-29T00:36:23;5.40;;;1.70;;
13891;SDS011;7016;48.172;8.058;2023-07-29T00:39:09;2.40;;;1.33;;
13891;SDS011;7016;48.172;8.058;2023-07-29T00:41:55;3.10;;;1.85;;
13891;SDS011;7016;48.172;8.058;2023-07-29T00:44:41;2.20;;;1.83;;
13891;SDS011;7016;48.172;8.058;2023-07-29T00:47:27;6.68;;;1.92;;
13891;SDS011;7016;48.172;8.058;2023-07-29T00:50:15;3.67;;;1.60;;
13891;SDS011;7016;48.172;8.058;2023-07-29T00:53:02;6.30;;;1.60;;
13891;SDS011;7016;48.172;8.058;2023-07-29T00:55:48;4.70;;;1.50;;
13891;SDS011;7016;48.172;8.058;2023-07-29T00:58:34;2.03;;;1.45;;
13891;SDS011;7016;48.172;8.058;2023-07-29T01:01:20;3.05;;;1.40;;
13891;SDS011;7016;48.172;8.058;2023-07-29T01:04:07;4.22;;;1.90;;
13891;SDS011;7016;48.172;8.058;2023-07-29T01:15:56;1.63;;;1.30;;
13891;SDS011;7016;48.172;8.058;2023-07-29T01:18:49;3.83;;;1.40;;
13891;SDS011;7016;48.172;8.058;2023-07-29T01:21:38;3.58;;;1.73;;
13891;SDS011;7016;48.172;8.058;2023-07-29T01:24:24;4.03;;;1.55;;
13891;SDS011;7016;48.172;8.058;2023-07-29T01:27:10;1.55;;;1.25;;
13891;SDS011;7016;48.172;8.058;2023-07-29T01:29:57;7.38;;;1.48;;
13891;SDS011;7016;48.172;8.058;2023-07-29T01:33:02;2.42;;;1.52;;
13891;SDS011;7016;48.172;8.058;2023-07-29T01:36:02;2.50;;;1.40;;
13891;SDS011;7016;48.172;8.058;2023-07-29T01:38:54;6.15;;;1.65;;
13891;SDS011;7016;48.172;8.058;2023-07-29T01:41:42;5.13;;;1.40;;
13891;SDS011;7016;48.172;8.058;2023-07-29T01:44:29;3.88;;;1.60;;
13891;SDS011;7016;48.172;8.058;2023-07-29T01:47:16;1.60;;;1.10;;
13891;SDS011;7016;48.172;8.058;2023-07-29T01:50:02;3.88;;;1.23;;
13891;SDS011;7016;48.172;8.058;2023-07-29T01:52:49;2.60;;;1.10;;
13891;SDS011;7016;48.172;8.058;2023-07-29T01:55:35;4.15;;;1.48;;
13891;SDS011;7016;48.172;8.058;2023-07-29T01:58:21;1.73;;;1.38;;
13891;SDS011;7016;48.172;8.058;2023-07-29T02:01:07;2.88;;;1.50;;
13891;SDS011;7016;48.172;8.058;2023-07-29T02:03:54;4.07;;;1.30;;
13891;SDS011;7016;48.172;8.058;2023-07-29T02:06:40;5.03;;;1.55;;
13891;SDS011;7016;48.172;8.058;2023-07-29T02:09:27;6.40;;;2.55;;
13891;SDS011;7016;48.172;8.058;2023-07-29T02:12:13;5.40;;;2.15;;
13891;SDS011;7016;48.172;8.058;2023-07-29T02:14:59;3.08;;;1.70;;
13891;SDS011;7016;48.172;8.058;2023-07-29T02:17:45;4.32;;;2.10;;
13891;SDS011;7016;48.172;8.058;2023-07-29T02:20:31;4.53;;;1.95;;
13891;SDS011;7016;48.172;8.058;2023-07-29T02:23:17;4.93;;;2.45;;
13891;SDS011;7016;48.172;8.058;2023-07-29T02:26:04;4.10;;;2.30;;
13891;SDS011;7016;48.172;8.058;2023-07-29T02:28:50;2.97;;;2.17;;
13891;SDS011;7016;48.172;8.058;2023-07-29T02:31:36;6.57;;;2.30;;
13891;SDS011;7016;48.172;8.058;2023-07-29T02:34:23;3.80;;;2.20;;
13891;SDS011;7016;48.172;8.058;2023-07-29T02:37:09;2.53;;;1.70;;
13891;SDS011;7016;48.172;8.058;2023-07-29T02:39:55;4.82;;;2.05;;
13891;SDS011;7016;48.172;8.058;2023-07-29T02:42:41;5.28;;;1.90;;
13891;SDS011;7016;48.172;8.058;2023-07-29T02:45:27;7.25;;;2.13;;
13891;SDS011;7016;48.172;8.058;2023-07-29T02:48:14;3.83;;;2.08;;
13891;SDS011;7016;48.172;8.058;2023-07-29T02:51:00;4.03;;;1.77;;
13891;SDS011;7016;48.172;8.058;2023-07-29T02:53:46;3.50;;;1.95;;
13891;SDS011;7016;48.172;8.058;2023-07-29T02:56:33;3.72;;;1.95;;
13891;SDS011;7016;48.172;8.058;2023-07-29T02:59:19;3.55;;;1.75;;
13891;SDS011;7016;48.172;8.058;2023-07-29T03:02:05;4.43;;;1.90;;
13891;SDS011;7016;48.172;8.058;2023-07-29T03:04:51;9.65;;;2.10;;
13891;SDS011;7016;48.172;8.058;2023-07-29T03:07:38;4.07;;;1.90;;
13891;SDS011;7016;48.172;8.058;2023-07-29T03:10:24;4.32;;;1.95;;
13891;SDS011;7016;48.172;8.058;2023-07-29T03:13:10;2.85;;;1.63;;
13891;SDS011;7016;48.172;8.058;2023-07-29T03:18:52;3.25;;;1.75;;
13891;SDS011;7016;48.172;8.058;2023-07-29T03:21:38;4.22;;;1.45;;
13891;SDS011;7016;48.172;8.058;2023-07-29T03:24:24;2.80;;;1.52;;
13891;SDS011;7016;48.172;8.058;2023-07-29T03:27:10;4.80;;;1.75;;
13891;SDS011;7016;48.172;8.058;2023-07-29T03:29:56;2.95;;;1.67;;
13891;SDS011;7016;48.172;8.058;2023-07-29T03:32:43;2.45;;;1.40;;
13891;SDS011;7016;48.172;8.058;2023-07-29T03:35:32;5.05;;;1.73;;
13891;SDS011;7016;48.172;8.058;2023-07-29T03:38:18;2.25;;;1.40;;
13891;SDS011;7016;48.172;8.058;2023-07-29T03:41:04;3.97;;;1.40;;
13891;SDS011;7016;48.172;8.058;2023-07-29T03:43:52;4.80;;;1.70;;
13891;SDS011;7016;48.172;8.058;2023-07-29T03:46:38;4.82;;;1.60;;
13891;SDS011;7016;48.172;8.058;2023-07-29T03:49:24;5.20;;;1.70;;
13891;SDS011;7016;48.172;8.058;2023-07-29T03:52:10;5.78;;;1.77;;
13891;SDS011;7016;48.172;8.058;2023-07-29T03:54:57;3.13;;;1.40;;
13891;SDS011;7016;48.172;8.058;2023-07-29T03:57:43;3.60;;;1.30;;
13891;SDS011;7016;48.172;8.058;2023-07-29T04:00:29;3.97;;;1.50;;
13891;SDS011;7016;48.172;8.058;2023-07-29T04:03:15;2.88;;;1.40;;
13891;SDS011;7016;48.172;8.058;2023-07-29T04:06:01;4.75;;;1.35;;
13891;SDS011;7016;48.172;8.058;2023-07-29T04:08:48;7.32;;;1.80;;
13891;SDS011;7016;48.172;8.058;2023-07-29T04:11:34;1.88;;;1.48;;
13891;SDS011;7016;48.172;8.058;2023-07-29T04:14:20;3.67;;;1.85;;
13891;SDS011;7016;48.172;8.058;2023-07-29T04:17:07;3.25;;;1.45;;
13891;SDS011;7016;48.172;8.058;2023-07-29T04:19:53;1.83;;;1.40;;
13891;SDS011;7016;48.172;8.058;2023-07-29T04:22:39;2.65;;;1.52;;
13891;SDS011;7016;48.172;8.058;2023-07-29T04:25:25;2.65;;;1.38;;
13891;SDS011;7016;48.172;8.058;2023-07-29T04:28:11;3.75;;;1.48;;
13891;SDS011;7016;48.172;8.058;2023-07-29T04:30:58;4.03;;;1.85;;
13891;SDS011;7016;48.172;8.058;2023-07-29T04:33:45;2.17;;;1.40;;
13891;SDS011;7016;48.172;8.058;2023-07-29T04:36:31;8.02;;;1.83;;
13891;SDS011;7016;48.172;8.058;2023-07-29T04:39:17;4.72;;;1.92;;
13891;SDS011;7016;48.172;8.058;2023-07-29T04:42:03;4.88;;;2.17;;
13891;SDS011;7016;48.172;8.058;2023-07-29T04:44:50;3.53;;;2.10;;
13891;SDS011;7016;48.172;8.058;2023-07-29T04:47:36;4.18;;;1.90;;
13891;SDS011;7016;48.172;8.058;2023-07-29T04:50:22;2.80;;;1.67;;
13891;SDS011;7016;48.172;8.058;2023-07-29T04:53:08;3.92;;;2.10;;
13891;SDS011;7016;48.172;8.058;2023-07-29T04:55:55;7.68;;;2.03;;
13891;SDS011;7016;48.172;8.058;2023-07-29T04:58:41;6.28;;;2.10;;
13891;SDS011;7016;48.172;8.058;2023-07-29T05:01:27;8.10;;;1.90;;
13891;SDS011;7016;48.172;8.058;2023-07-29T05:04:13;4.72;;;1.85;;
13891;SDS011;7016;48.172;8.058;2023-07-29T05:07:00;2.20;;;1.65;;
13891;SDS011;7016;48.172;8.058;2023-07-29T05:09:47;10.60;;;2.33;;
13891;SDS011;7016;48.172;8.058;2023-07-29T05:12:33;6.00;;;1.65;;
13891;SDS011;7016;48.172;8.058;2023-07-29T05:15:19;4.05;;;1.55;;
13891;SDS011;7016;48.172;8.058;2023-07-29T05:18:05;6.13;;;1.85;;
13891;SDS011;7016;48.172;8.058;2023-07-29T05:20:52;2.47;;;1.83;;
13891;SDS011;7016;48.172;8.058;2023-07-29T05:23:38;2.75;;;1.90;;
13891;SDS011;7016;48.172;8.058;2023-07-29T05:26:24;6.25;;;2.10;;
13891;SDS011;7016;48.172;8.058;2023-07-29T05:29:10;7.63;;;2.50;;
13891;SDS011;7016;48.172;8.058;2023-07-29T05:31:56;6.00;;;2.30;;
13891;SDS011;7016;48.172;8.058;2023-07-29T05:34:43;13.98;;;3.20;;
13891;SDS011;7016;48.172;8.058;2023-07-29T05:37:29;7.35;;;2.17;;
13891;SDS011;7016;48.172;8.058;2023-07-29T05:40:15;9.18;;;2.10;;
13891;SDS011;7016;48.172;8.058;2023-07-29T05:43:02;6.07;;;2.30;;
13891;SDS011;7016;48.172;8.058;2023-07-29T05:45:48;9.77;;;2.30;;
13891;SDS011;7016;48.172;8.058;2023-07-29T05:48:34;4.05;;;1.98;;
13891;SDS011;7016;48.172;8.058;2023-07-29T05:51:21;12.15;;;2.60;;
13891;SDS011;7016;48.172;8.058;2023-07-29T05:54:07;6.70;;;2.47;;
13891;SDS011;7016;48.172;8.058;2023-07-29T05:56:53;8.80;;;2.28;;
13891;SDS011;7016;48.172;8.058;2023-07-29T05:59:39;7.05;;;2.58;;
13891;SDS011;7016;48.172;8.058;2023-07-29T06:02:25;9.20;;;3.70;;
13891;SDS011;7016;48.172;8.058;2023-07-29T06:05:11;8.20;;;3.55;;
13891;SDS011;7016;48.172;8.058;2023-07-29T06:07:57;12.82;;;4.63;;
13891;SDS011;7016;48.172;8.058;2023-07-29T06:10:44;7.47;;;4.68;;
13891;SDS011;7016;48.172;8.058;2023-07-29T06:13:30;15.55;;;4.53;;
13891;SDS011;7016;48.172;8.058;2023-07-29T06:16:16;7.70;;;4.10;;
13891;SDS011;7016;48.172;8.058;2023-07-29T06:19:02;4.18;;;2.80;;
13891;SDS011;7016;48.172;8.058;2023-07-29T06:21:49;9.90;;;4.63;;
13891;SDS011;7016;48.172;8.058;2023-07-29T06:24:35;13.07;;;5.90;;
13891;SDS011;7016;48.172;8.058;2023-07-29T06:27:21;7.65;;;4.70;;
13891;SDS011;7016;48.172;8.058;2023-07-29T06:30:07;8.95;;;4.20;;
13891;SDS011;7016;48.172;8.058;2023-07-29T06:32:54;6.97;;;3.95;;
13891;SDS011;7016;48.172;8.058;2023-07-29T06:35:41;11.45;;;5.25;;
13891;SDS011;7016;48.172;8.058;2023-07-29T06:38:27;12.02;;;5.00;;
13891;SDS011;7016;48.172;8.058;2023-07-29T06:41:13;13.23;;;5.65;;
13891;SDS011;7016;48.172;8.058;2023-07-29T06:44:00;18.77;;;8.43;;
13891;SDS011;7016;48.172;8.058;2023-07-29T06:46:46;15.82;;;6.07;;
13891;SDS011;7016;48.172;8.058;2023-07-29T06:49:32;9.13;;;5.00;;
13891;SDS011;7016;48.172;8.058;2023-07-29T06:52:18;14.63;;;6.82;;
13891;SDS011;7016;48.172;8.058;2023-07-29T06:55:04;11.80;;;5.57;;
13891;SDS011;7016;48.172;8.058;2023-07-29T06:57:51;7.53;;;4.40;;
13891;SDS011;7016;48.172;8.058;2023-07-29T07:00:37;9.38;;;4.70;;
13891;SDS011;7016;48.172;8.058;2023-07-29T07:03:23;7.53;;;4.30;;
13891;SDS011;7016;48.172;8.058;2023-07-29T07:06:09;7.70;;;4.60;;
13891;SDS011;7016;48.172;8.058;2023-07-29T07:08:56;12.82;;;4.85;;
13891;SDS011;7016;48.172;8.058;2023-07-29T07:11:42;6.18;;;4.10;;
13891;SDS011;7016;48.172;8.058;2023-07-29T07:14:28;7.53;;;3.72;;
13891;SDS011;7016;48.172;8.058;2023-07-29T07:17:14;7.65;;;3.95;;
13891;SDS011;7016;48.172;8.058;2023-07-29T07:20:00;7.72;;;4.22;;
13891;SDS011;7016;48.172;8.058;2023-07-29T07:22:46;5.32;;;3.42;;
13891;SDS011;7016;48.172;8.058;2023-07-29T07:25:33;10.30;;;3.88;;
13891;SDS011;7016;48.172;8.058;2023-07-29T07:28:19;10.77;;;3.33;;
13891;SDS011;7016;48.172;8.058;2023-07-29T07:31:05;5.32;;;3.20;;
13891;SDS011;7016;48.172;8.058;2023-07-29T07:33:51;7.25;;;3.35;;
13891;SDS011;7016;48.172;8.058;2023-07-29T07:36:37;7.82;;;3.83;;
13891;SDS011;7016;48.172;8.058;2023-07-29T07:39:24;4.85;;;3.13;;
13891;SDS011;7016;48.172;8.058;2023-07-29T07:42:10;5.57;;;3.22;;
13891;SDS011;7016;48.172;8.058;2023-07-29T07:44:56;5.35;;;3.10;;
13891;SDS011;7016;48.172;8.058;2023-07-29T07:47:42;4.75;;;3.08;;
13891;SDS011;7016;48.172;8.058;2023-07-29T07:50:29;4.43;;;2.85;;
13891;SDS011;7016;48.172;8.058;2023-07-29T07:53:16;9.40;;;3.40;;
13891;SDS011;7016;48.172;8.058;2023-07-29T07:56:02;5.15;;;3.03;;
13891;SDS011;7016;48.172;8.058;2023-07-29T07:58:48;12.90;;;3.17;;
13891;SDS011;7016;48.172;8.058;2023-07-29T08:01:35;5.03;;;2.65;;
13891;SDS011;7016;48.172;8.058;2023-07-29T08:04:22;3.55;;;2.70;;
13891;SDS011;7016;48.172;8.058;2023-07-29T08:07:08;5.50;;;2.90;;
13891;SDS011;7016;48.172;8.058;2023-07-29T08:09:55;4.50;;;2.63;;
13891;SDS011;7016;48.172;8.058;2023-07-29T08:12:41;4.75;;;2.72;;
13891;SDS011;7016;48.172;8.058;2023-07-29T08:15:27;5.88;;;2.95;;
13891;SDS011;7016;48.172;8.058;2023-07-29T08:18:13;7.22;;;2.70;;
13891;SDS011;7016;48.172;8.058;2023-07-29T08:21:00;8.13;;;3.10;;
13891;SDS011;7016;48.172;8.058;2023-07-29T08:23:49;6.90;;;2.95;;
13891;SDS011;7016;48.172;8.058;2023-07-29T08:26:36;6.10;;;3.10;;
13891;SDS011;7016;48.172;8.058;2023-07-29T08:29:22;6.93;;;3.13;;
13891;SDS011;7016;48.172;8.058;2023-07-29T08:32:08;6.00;;;3.10;;
13891;SDS011;7016;48.172;8.058;2023-07-29T08:34:55;4.78;;;2.90;;
13891;SDS011;7016;48.172;8.058;2023-07-29T08:37:44;6.05;;;2.97;;
13891;SDS011;7016;48.172;8.058;2023-07-29T08:40:30;4.20;;;3.13;;
13891;SDS011;7016;48.172;8.058;2023-07-29T08:43:20;5.75;;;3.40;;
13891;SDS011;7016;48.172;8.058;2023-07-29T08:46:12;3.30;;;2.75;;
13891;SDS011;7016;48.172;8.058;2023-07-29T08:48:59;6.13;;;2.85;;
13891;SDS011;7016;48.172;8.058;2023-07-29T08:51:47;3.45;;;2.75;;
13891;SDS011;7016;48.172;8.058;2023-07-29T08:54:34;7.22;;;2.47;;
13891;SDS011;7016;48.172;8.058;2023-07-29T08:57:21;4.35;;;3.15;;
13891;SDS011;7016;48.172;8.058;2023-07-29T08:59:48;5.28;;;2.85;;
13891;SDS011;7016;48.172;8.058;2023-07-29T09:02:14;5.18;;;2.95;;
13891;SDS011;7016;48.172;8.058;2023-07-29T09:04:39;3.35;;;2.45;;
13891;SDS011;7016;48.172;8.058;2023-07-29T09:07:05;8.55;;;2.85;;
13891;SDS011;7016;48.172;8.058;2023-07-29T09:09:32;5.13;;;2.70;;
13891;SDS011;7016;48.172;8.058;2023-07-29T09:11:57;7.57;;;3.63;;
13891;SDS011;7016;48.172;8.058;2023-07-29T09:14:24;4.57;;;2.55;;
13891;SDS011;7016;48.172;8.058;2023-07-29T09:16:49;6.57;;;2.90;;
13891;SDS011;7016;48.172;8.058;2023-07-29T09:19:16;4.40;;;2.83;;
13891;SDS011;7016;48.172;8.058;2023-07-29T09:21:42;6.38;;;3.25;;
13891;SDS011;7016;48.172;8.058;2023-07-29T09:24:07;6.93;;;3.58;;
13891;SDS011;7016;48.172;8.058;2023-07-29T09:26:34;8.93;;;3.28;;
13891;SDS011;7016;48.172;8.058;2023-07-29T09:29:00;5.47;;;3.03;;
13891;SDS011;7016;48.172;8.058;2023-07-29T09:31:26;6.25;;;2.90;;
13891;SDS011;7016;48.172;8.058;2023-07-29T09:33:55;14.98;;;5.18;;
13891;SDS011;7016;48.172;8.058;2023-07-29T09:36:23;9.65;;;3.72;;
13891;SDS011;7016;48.172;8.058;2023-07-29T09:38:51;4.65;;;3.30;;
13891;SDS011;7016;48.172;8.058;2023-07-29T09:41:18;4.30;;;2.63;;
13891;SDS011;7016;48.172;8.058;2023-07-29T09:43:46;5.20;;;3.17;;
13891;SDS011;7016;48.172;8.058;2023-07-29T09:46:12;6.47;;;2.97;;
13891;SDS011;7016;48.172;8.058;2023-07-29T09:48:38;3.80;;;2.63;;
13891;SDS011;7016;48.172;8.058;2023-07-29T09:51:10;4.88;;;2.70;;
13891;SDS011;7016;48.172;8.058;2023-07-29T09:53:45;5.65;;;2.97;;
13891;SDS011;7016;48.172;8.058;2023-07-29T09:56:13;3.45;;;2.63;;
13891;SDS011;7016;48.172;8.058;2023-07-29T09:58:39;4.90;;;2.85;;
13891;SDS011;7016;48.172;8.058;2023-07-29T10:01:05;5.47;;;3.20;;
13891;SDS011;7016;48.172;8.058;2023-07-29T10:03:32;4.20;;;3.00;;
13891;SDS011;7016;48.172;8.058;2023-07-29T10:06:03;5.57;;;2.88;;
13891;SDS011;7016;48.172;8.058;2023-07-29T10:08:30;4.68;;;2.70;;
13891;SDS011;7016;48.172;8.058;2023-07-29T10:11:06;4.63;;;2.90;;
13891;SDS011;7016;48.172;8.058;2023-07-29T10:13:32;6.80;;;2.83;;
13891;SDS011;7016;48.172;8.058;2023-07-29T10:15:59;8.43;;;3.13;;
13891;SDS011;7016;48.172;8.058;2023-07-29T10:18:28;3.83;;;2.75;;
13891;SDS011;7016;48.172;8.058;2023-07-29T10:20:56;4.22;;;2.83;;
13891;SDS011;7016;48.172;8.058;2023-07-29T10:23:24;5.78;;;3.00;;
13891;SDS011;7016;48.172;8.058;2023-07-29T10:26:06;4.20;;;2.65;;
13891;SDS011;7016;48.172;8.058;2023-07-29T10:28:36;7.28;;;3.15;;
13891;SDS011;7016;48.172;8.058;2023-07-29T10:31:04;4.22;;;2.60;;
13891;SDS011;7016;48.172;8.058;2023-07-29T10:33:30;7.38;;;3.05;;
13891;SDS011;7016;48.172;8.058;2023-07-29T10:35:59;4.00;;;2.90;;
13891;SDS011;7016;48.172;8.058;2023-07-29T10:38:25;5.65;;;2.90;;
13891;SDS011;7016;48.172;8.058;2023-07-29T10:41:10;4.18;;;2.60;;
13891;SDS011;7016;48.172;8.058;2023-07-29T10:43:56;4.05;;;2.75;;
13891;SDS011;7016;48.172;8.058;2023-07-29T10:46:42;5.43;;;2.75;;
13891;SDS011;7016;48.172;8.058;2023-07-29T10:49:29;5.28;;;3.05;;
13891;SDS011;7016;48.172;8.058;2023-07-29T10:51:56;4.80;;;2.90;;
13891;SDS011;7016;48.172;8.058;2023-07-29T10:54:22;3.38;;;2.47;;
13891;SDS011;7016;48.172;8.058;2023-07-29T10:56:48;3.90;;;2.60;;
13891;SDS011;7016;48.172;8.058;2023-07-29T11:01:53;3.35;;;2.33;;
13891;SDS011;7016;48.172;8.058;2023-07-29T11:09:40;4.22;;;2.58;;
13891;SDS011;7016;48.172;8.058;2023-07-29T11:15:04;3.60;;;2.58;;
13891;SDS011;7016;48.172;8.058;2023-07-29T11:17:41;4.93;;;2.83;;
13891;SDS011;7016;48.172;8.058;2023-07-29T11:20:10;3.70;;;2.58;;
13891;SDS011;7016;48.172;8.058;2023-07-29T11:22:37;3.67;;;2.38;;
13891;SDS011;7016;48.172;8.058;2023-07-29T11:25:04;3.17;;;2.67;;
13891;SDS011;7016;48.172;8.058;2023-07-29T11:27:32;5.82;;;2.53;;
13891;SDS011;7016;48.172;8.058;2023-07-29T11:29:58;4.55;;;2.28;;
13891;SDS011;7016;48.172;8.058;2023-07-29T11:32:25;4.68;;;2.75;;
13891;SDS011;7016;48.172;8.058;2023-07-29T11:34:50;4.95;;;2.70;;
13891;SDS011;7016;48.172;8.058;2023-07-29T11:37:16;4.60;;;2.45;;
13891;SDS011;7016;48.172;8.058;2023-07-29T11:39:42;5.00;;;2.50;;
13891;SDS011;7016;48.172;8.058;2023-07-29T11:42:11;3.33;;;2.20;;
13891;SDS011;7016;48.172;8.058;2023-07-29T11:44:38;3.78;;;2.40;;
13891;SDS011;7016;48.172;8.058;2023-07-29T11:47:07;4.35;;;2.60;;
13891;SDS011;7016;48.172;8.058;2023-07-29T11:49:34;4.32;;;2.20;;
13891;SDS011;7016;48.172;8.058;2023-07-29T11:52:00;4.13;;;2.55;;
13891;SDS011;7016;48.172;8.058;2023-07-29T11:54:27;6.50;;;2.30;;
13891;SDS011;7016;48.172;8.058;2023-07-29T11:56:54;3.38;;;2.78;;
13891;SDS011;7016;48.172;8.058;2023-07-29T11:59:20;3.33;;;2.30;;
13891;SDS011;7016;48.172;8.058;2023-07-29T12:01:46;4.13;;;2.20;;
13891;SDS011;7016;48.172;8.058;2023-07-29T12:04:12;4.32;;;2.60;;
13891;SDS011;7016;48.172;8.058;2023-07-29T12:06:39;5.57;;;2.17;;
13891;SDS011;7016;48.172;8.058;2023-07-29T12:09:05;6.88;;;2.33;;
13891;SDS011;7016;48.172;8.058;2023-07-29T12:11:32;3.35;;;2.45;;
13891;SDS011;7016;48.172;8.058;2023-07-29T12:13:59;3.38;;;2.40;;
13891;SDS011;7016;48.172;8.058;2023-07-29T12:16:25;4.72;;;2.17;;
13891;SDS011;7016;48.172;8.058;2023-07-29T12:18:51;4.40;;;1.98;;
13891;SDS011;7016;48.172;8.058;2023-07-29T12:21:17;3.80;;;2.17;;
13891;SDS011;7016;48.172;8.058;2023-07-29T12:23:44;3.10;;;2.03;;
13891;SDS011;7016;48.172;8.058;2023-07-29T12:26:10;2.55;;;2.10;;
13891;SDS011;7016;48.172;8.058;2023-07-29T12:28:36;3.50;;;2.33;;
13891;SDS011;7016;48.172;8.058;2023-07-29T12:31:01;6.20;;;2.30;;
13891;SDS011;7016;48.172;8.058;2023-07-29T12:33:32;3.33;;;2.28;;
13891;SDS011;7016;48.172;8.058;2023-07-29T12:36:00;4.90;;;1.95;;
13891;SDS011;7016;48.172;8.058;2023-07-29T12:38:26;4.30;;;2.15;;
13891;SDS011;7016;48.172;8.058;2023-07-29T12:40:52;3.60;;;2.05;;
13891;SDS011;7016;48.172;8.058;2023-07-29T12:43:18;4.43;;;2.13;;
13891;SDS011;7016;48.172;8.058;2023-07-29T12:45:44;3.63;;;2.35;;
13891;SDS011;7016;48.172;8.058;2023-07-29T12:48:10;3.33;;;2.03;;
13891;SDS011;7016;48.172;8.058;2023-07-29T12:50:36;3.35;;;2.17;;
13891;SDS011;7016;48.172;8.058;2023-07-29T12:53:02;3.35;;;2.53;;
13891;SDS011;7016;48.172;8.058;2023-07-29T12:55:28;2.90;;;2.30;;
13891;SDS011;7016;48.172;8.058;2023-07-29T12:57:53;4.03;;;2.30;;
13891;SDS011;7016;48.172;8.058;2023-07-29T13:00:19;3.70;;;2.28;;
13891;SDS011;7016;48.172;8.058;2023-07-29T13:02:45;3.20;;;2.20;;
13891;SDS011;7016;48.172;8.058;2023-07-29T13:05:10;3.45;;;2.30;;
13891;SDS011;7016;48.172;8.058;2023-07-29T13:07:38;3.28;;;2.25;;
13891;SDS011;7016;48.172;8.058;2023-07-29T13:10:04;3.60;;;2.30;;
13891;SDS011;7016;48.172;8.058;2023-07-29T13:12:30;3.58;;;2.20;;
13891;SDS011;7016;48.172;8.058;2023-07-29T13:14:56;2.17;;;1.92;;
13891;SDS011;7016;48.172;8.058;2023-07-29T13:17:22;3.20;;;2.20;;
13891;SDS011;7016;48.172;8.058;2023-07-29T13:19:48;3.42;;;2.17;;
13891;SDS011;7016;48.172;8.058;2023-07-29T13:22:14;3.30;;;2.20;;
13891;SDS011;7016;48.172;8.058;2023-07-29T13:24:40;4.53;;;2.10;;
13891;SDS011;7016;48.172;8.058;2023-07-29T13:27:06;6.70;;;2.50;;
13891;SDS011;7016;48.172;8.058;2023-07-29T13:29:31;3.42;;;2.10;;
13891;SDS011;7016;48.172;8.058;2023-07-29T13:31:57;2.53;;;2.00;;
13891;SDS011;7016;48.172;8.058;2023-07-29T13:34:23;3.15;;;2.40;;
13891;SDS011;7016;48.172;8.058;2023-07-29T13:36:49;9.45;;;2.50;;
13891;SDS011;7016;48.172;8.058;2023-07-29T13:39:15;2.78;;;2.03;;
13891;SDS011;7016;48.172;8.058;2023-07-29T13:41:40;4.45;;;2.20;;
13891;SDS011;7016;48.172;8.058;2023-07-29T13:44:06;3.55;;;2.30;;
13891;SDS011;7016;48.172;8.058;2023-07-29T13:46:32;3.47;;;2.28;;
13891;SDS011;7016;48.172;8.058;2023-07-29T13:48:57;4.65;;;2.35;;
13891;SDS011;7016;48.172;8.058;2023-07-29T13:51:23;3.80;;;2.47;;
13891;SDS011;7016;48.172;8.058;2023-07-29T13:53:49;6.53;;;4.15;;
13891;SDS011;7016;48.172;8.058;2023-07-29T13:56:14;4.20;;;2.92;;
13891;SDS011;7016;48.172;8.058;2023-07-29T13:58:40;3.95;;;2.60;;
13891;SDS011;7016;48.172;8.058;2023-07-29T14:01:06;6.22;;;3.40;;
13891;SDS011;7016;48.172;8.058;2023-07-29T14:03:32;4.10;;;2.85;;
13891;SDS011;7016;48.172;8.058;2023-07-29T14:05:57;4.78;;;2.95;;
13891;SDS011;7016;48.172;8.058;2023-07-29T14:08:23;3.83;;;2.70;;
13891;SDS011;7016;48.172;8.058;2023-07-29T14:10:49;4.18;;;2.55;;
13891;SDS011;7016;48.172;8.058;2023-07-29T14:13:15;4.13;;;2.08;;
13891;SDS011;7016;48.172;8.058;2023-07-29T14:15:40;5.32;;;2.22;;
13891;SDS011;7016;48.172;8.058;2023-07-29T14:18:06;4.53;;;1.95;;
13891;SDS011;7016;48.172;8.058;2023-07-29T14:20:32;3.90;;;2.38;;
13891;SDS011;7016;48.172;8.058;2023-07-29T14:22:58;5.93;;;2.08;;
13891;SDS011;7016;48.172;8.058;2023-07-29T14:25:24;3.70;;;2.60;;
13891;SDS011;7016;48.172;8.058;2023-07-29T14:27:50;3.67;;;2.30;;
13891;SDS011;7016;48.172;8.058;2023-07-29T14:30:15;2.80;;;2.30;;
13891;SDS011;7016;48.172;8.058;2023-07-29T14:32:41;3.75;;;2.10;;
13891;SDS011;7016;48.172;8.058;2023-07-29T14:35:07;7.65;;;2.20;;
13891;SDS011;7016;48.172;8.058;2023-07-29T14:37:33;4.15;;;2.25;;
13891;SDS011;7016;48.172;8.058;2023-07-29T14:40:00;7.10;;;2.55;;
13891;SDS011;7016;48.172;8.058;2023-07-29T14:42:26;4.82;;;2.55;;
13891;SDS011;7016;48.172;8.058;2023-07-29T14:44:52;4.22;;;3.05;;
13891;SDS011;7016;48.172;8.058;2023-07-29T14:47:18;3.35;;;2.33;;
13891;SDS011;7016;48.172;8.058;2023-07-29T14:49:44;2.70;;;2.20;;
13891;SDS011;7016;48.172;8.058;2023-07-29T14:52:10;4.97;;;3.00;;
13891;SDS011;7016;48.172;8.058;2023-07-29T14:54:36;4.65;;;2.30;;
13891;SDS011;7016;48.172;8.058;2023-07-29T14:57:05;3.88;;;2.38;;
13891;SDS011;7016;48.172;8.058;2023-07-29T14:59:31;4.30;;;2.72;;
13891;SDS011;7016;48.172;8.058;2023-07-29T15:01:57;3.92;;;2.63;;
13891;SDS011;7016;48.172;8.058;2023-07-29T15:04:22;3.70;;;2.55;;
13891;SDS011;7016;48.172;8.058;2023-07-29T15:06:48;2.97;;;2.00;;
13891;SDS011;7016;48.172;8.058;2023-07-29T15:09:14;4.75;;;2.30;;
13891;SDS011;7016;48.172;8.058;2023-07-29T15:11:39;3.88;;;2.47;;
13891;SDS011;7016;48.172;8.058;2023-07-29T15:14:06;3.55;;;2.42;;
13891;SDS011;7016;48.172;8.058;2023-07-29T15:16:32;4.32;;;2.40;;
13891;SDS011;7016;48.172;8.058;2023-07-29T15:18:59;4.95;;;2.40;;
13891;SDS011;7016;48.172;8.058;2023-07-29T15:21:24;3.63;;;2.45;;
13891;SDS011;7016;48.172;8.058;2023-07-29T15:23:50;2.95;;;2.40;;
13891;SDS011;7016;48.172;8.058;2023-07-29T15:26:16;5.75;;;2.88;;
13891;SDS011;7016;48.172;8.058;2023-07-29T15:28:41;7.53;;;3.08;;
13891;SDS011;7016;48.172;8.058;2023-07-29T15:31:07;5.65;;;2.92;;
13891;SDS011;7016;48.172;8.058;2023-07-29T15:33:33;7.28;;;3.05;;
13891;SDS011;7016;48.172;8.058;2023-07-29T15:35:59;4.82;;;2.90;;
13891;SDS011;7016;48.172;8.058;2023-07-29T15:38:25;4.55;;;3.13;;
13891;SDS011;7016;48.172;8.058;2023-07-29T15:40:51;6.00;;;3.05;;
13891;SDS011;7016;48.172;8.058;2023-07-29T15:43:17;4.03;;;3.33;;
13891;SDS011;7016;48.172;8.058;2023-07-29T15:45:43;5.55;;;3.75;;
13891;SDS011;7016;48.172;8.058;2023-07-29T15:48:10;6.05;;;3.20;;
13891;SDS011;7016;48.172;8.058;2023-07-29T15:50:36;4.97;;;3.08;;
13891;SDS011;7016;48.172;8.058;2023-07-29T15:53:01;5.57;;;3.45;;
13891;SDS011;7016;48.172;8.058;2023-07-29T15:55:28;4.78;;;3.30;;
13891;SDS011;7016;48.172;8.058;2023-07-29T15:57:54;4.25;;;2.80;;
13891;SDS011;7016;48.172;8.058;2023-07-29T16:00:20;11.88;;;3.42;;
13891;SDS011;7016;48.172;8.058;2023-07-29T16:02:47;5.55;;;3.17;;
13891;SDS011;7016;48.172;8.058;2023-07-29T16:05:13;5.07;;;3.05;;
13891;SDS011;7016;48.172;8.058;2023-07-29T16:07:39;5.32;;;3.25;;
13891;SDS011;7016;48.172;8.058;2023-07-29T16:10:05;12.45;;;3.15;;
13891;SDS011;7016;48.172;8.058;2023-07-29T16:12:31;4.70;;;3.45;;
13891;SDS011;7016;48.172;8.058;2023-07-29T16:15:01;6.68;;;3.45;;
13891;SDS011;7016;48.172;8.058;2023-07-29T16:17:27;7.70;;;3.47;;
13891;SDS011;7016;48.172;8.058;2023-07-29T16:19:58;5.05;;;2.95;;
13891;SDS011;7016;48.172;8.058;2023-07-29T16:22:26;4.28;;;2.83;;